sensor_id;sensor_type;location;lat;lon;timestamp;pressure;altitude;pressure_sealevel;temperature;humidity
82379;BME280;72008;48.140;11.614;2023-12-29T00:00:57;95653.88;;;9.42;79.01
82379;BME280;72008;48.140;11.614;2023-12-29T00:01:58;95661.47;;;9.37;76.80
82379;BME280;72008;48.140;11.614;2023-12-29T00:02:58;95657.94;;;9.36;79.36
82379;BME280;72008;48.140;11.614;2023-12-29T00:03:58;95658.00;;;9.27;75.37
82379;BME280;72008;48.140;11.614;2023-12-29T00:04:59;95665.03;;;9.28;76.44
82379;BME280;72008;48.140;11.614;2023-12-29T00:06:02;95656.84;;;9.28;74.72
82379;BME280;72008;48.140;11.614;2023-12-29T00:07:03;95650.72;;;9.31;73.41
82379;BME280;72008;48.140;11.614;2023-12-29T00:08:03;95652.00;;;9.34;76.08
82379;BME280;72008;48.140;11.614;2023-12-29T00:09:04;95643.00;;;9.33;79.19
82379;BME280;72008;48.140;11.614;2023-12-29T00:10:05;95642.03;;;9.38;77.12
82379;BME280;72008;48.140;11.614;2023-12-29T00:11:05;95643.97;;;9.38;78.80
82379;BME280;72008;48.140;11.614;2023-12-29T00:12:07;95629.97;;;9.39;77.99
82379;BME280;72008;48.140;11.614;2023-12-29T00:13:08;95628.16;;;9.43;80.42
82379;BME280;72008;48.140;11.614;2023-12-29T00:14:08;95635.44;;;9.39;76.79
82379;BME280;72008;48.140;11.614;2023-12-29T00:15:08;95631.41;;;9.37;77.29
82379;BME280;72008;48.140;11.614;2023-12-29T00:16:09;95632.22;;;9.37;77.57
82379;BME280;72008;48.140;11.614;2023-12-29T00:17:09;95633.84;;;9.38;76.74
82379;BME280;72008;48.140;11.614;2023-12-29T00:18:10;95626.91;;;9.41;76.24
82379;BME280;72008;48.140;11.614;2023-12-29T00:19:11;95632.81;;;9.43;78.95
82379;BME280;72008;48.140;11.614;2023-12-29T00:20:12;95626.69;;;9.46;80.71
82379;BME280;72008;48.140;11.614;2023-12-29T00:21:13;95627.38;;;9.43;77.60
82379;BME280;72008;48.140;11.614;2023-12-29T00:22:13;95623.50;;;9.44;80.14
82379;BME280;72008;48.140;11.614;2023-12-29T00:23:14;95621.91;;;9.43;79.09
82379;BME280;72008;48.140;11.614;2023-12-29T00:24:14;95625.09;;;9.45;79.93
82379;BME280;72008;48.140;11.614;2023-12-29T00:25:14;95623.16;;;9.45;76.59
82379;BME280;72008;48.140;11.614;2023-12-29T00:26:18;95622.38;;;9.45;76.85
82379;BME280;72008;48.140;11.614;2023-12-29T00:27:18;95616.44;;;9.43;76.23
82379;BME280;72008;48.140;11.614;2023-12-29T00:28:18;95619.97;;;9.43;76.44
82379;BME280;72008;48.140;11.614;2023-12-29T00:29:19;95619.69;;;9.36;78.54
82379;BME280;72008;48.140;11.614;2023-12-29T00:30:19;95622.91;;;9.38;79.55
82379;BME280;72008;48.140;11.614;2023-12-29T00:31:20;95620.63;;;9.40;79.01
82379;BME280;72008;48.140;11.614;2023-12-29T00:32:20;95621.28;;;9.37;74.91
82379;BME280;72008;48.140;11.614;2023-12-29T00:33:21;95619.50;;;9.41;79.23
82379;BME280;72008;48.140;11.614;2023-12-29T00:34:21;95615.63;;;9.42;80.56
82379;BME280;72008;48.140;11.614;2023-12-29T00:35:21;95620.50;;;9.37;79.01
82379;BME280;72008;48.140;11.614;2023-12-29T00:36:22;95613.25;;;9.41;81.38
82379;BME280;72008;48.140;11.614;2023-12-29T00:37:22;95623.03;;;9.42;78.38
82379;BME280;72008;48.140;11.614;2023-12-29T00:38:23;95614.22;;;9.36;78.58
82379;BME280;72008;48.140;11.614;2023-12-29T00:39:23;95620.63;;;9.40;77.67
82379;BME280;72008;48.140;11.614;2023-12-29T00:40:23;95624.50;;;9.39;79.75
82379;BME280;72008;48.140;11.614;2023-12-29T00:41:24;95624.38;;;9.36;77.29
82379;BME280;72008;48.140;11.614;2023-12-29T00:42:24;95618.78;;;9.32;75.67
82379;BME280;72008;48.140;11.614;2023-12-29T00:43:25;95625.34;;;9.31;75.12
82379;BME280;72008;48.140;11.614;2023-12-29T00:44:25;95614.09;;;9.32;78.71
82379;BME280;72008;48.140;11.614;2023-12-29T00:45:25;95630.63;;;9.36;82.07
82379;BME280;72008;48.140;11.614;2023-12-29T00:46:26;95616.97;;;9.36;75.83
82379;BME280;72008;48.140;11.614;2023-12-29T00:47:26;95614.06;;;9.41;79.61
82379;BME280;72008;48.140;11.614;2023-12-29T00:48:27;95616.19;;;9.36;76.52
82379;BME280;72008;48.140;11.614;2023-12-29T00:49:27;95603.31;;;9.36;81.44
82379;BME280;72008;48.140;11.614;2023-12-29T00:50:28;95602.38;;;9.32;78.21
82379;BME280;72008;48.140;11.614;2023-12-29T00:51:28;95601.31;;;9.24;78.16
82379;BME280;72008;48.140;11.614;2023-12-29T00:52:28;95597.28;;;9.22;76.20
82379;BME280;72008;48.140;11.614;2023-12-29T00:53:29;95598.88;;;9.23;74.46
82379;BME280;72008;48.140;11.614;2023-12-29T00:54:30;95591.97;;;9.25;81.11
82379;BME280;72008;48.140;11.614;2023-12-29T00:55:30;95588.91;;;9.27;78.20
82379;BME280;72008;48.140;11.614;2023-12-29T00:56:30;95590.84;;;9.26;81.48
82379;BME280;72008;48.140;11.614;2023-12-29T00:57:31;95595.84;;;9.24;79.58
82379;BME280;72008;48.140;11.614;2023-12-29T00:58:31;95596.38;;;9.18;78.79
82379;BME280;72008;48.140;11.614;2023-12-29T00:59:32;95601.69;;;9.14;76.33
82379;BME280;72008;48.140;11.614;2023-12-29T01:00:32;95593.63;;;9.18;79.03
82379;BME280;72008;48.140;11.614;2023-12-29T01:01:34;95597.34;;;9.13;77.84
82379;BME280;72008;48.140;11.614;2023-12-29T01:02:34;95594.75;;;9.17;80.94
82379;BME280;72008;48.140;11.614;2023-12-29T01:03:35;95604.09;;;9.16;78.85
82379;BME280;72008;48.140;11.614;2023-12-29T01:04:38;95596.03;;;9.19;79.58
82379;BME280;72008;48.140;11.614;2023-12-29T01:05:38;95596.16;;;9.23;81.66
82379;BME280;72008;48.140;11.614;2023-12-29T01:06:39;95592.63;;;9.22;79.61
82379;BME280;72008;48.140;11.614;2023-12-29T01:07:39;95593.16;;;9.16;75.21
82379;BME280;72008;48.140;11.614;2023-12-29T01:08:40;95594.47;;;9.09;75.80
82379;BME280;72008;48.140;11.614;2023-12-29T01:09:40;95588.84;;;9.15;80.44
82379;BME280;72008;48.140;11.614;2023-12-29T01:10:42;95596.38;;;9.18;79.05
82379;BME280;72008;48.140;11.614;2023-12-29T01:11:42;95593.78;;;9.21;78.98
82379;BME280;72008;48.140;11.614;2023-12-29T01:12:42;95592.03;;;9.17;78.65
82379;BME280;72008;48.140;11.614;2023-12-29T01:13:43;95584.50;;;9.14;79.46
82379;BME280;72008;48.140;11.614;2023-12-29T01:14:43;95590.13;;;9.17;81.04
82379;BME280;72008;48.140;11.614;2023-12-29T01:15:44;95597.47;;;9.17;80.99
82379;BME280;72008;48.140;11.614;2023-12-29T01:16:44;95596.69;;;9.16;77.07
82379;BME280;72008;48.140;11.614;2023-12-29T01:17:44;95595.09;;;9.15;79.57
82379;BME280;72008;48.140;11.614;2023-12-29T01:18:45;95603.41;;;9.19;79.25
82379;BME280;72008;48.140;11.614;2023-12-29T01:19:45;95597.47;;;9.17;74.78
82379;BME280;72008;48.140;11.614;2023-12-29T01:20:46;95596.81;;;9.20;80.44
82379;BME280;72008;48.140;11.614;2023-12-29T01:21:46;95605.00;;;9.20;78.21
82379;BME280;72008;48.140;11.614;2023-12-29T01:22:47;95612.75;;;9.18;80.43
82379;BME280;72008;48.140;11.614;2023-12-29T01:23:47;95613.56;;;9.18;81.01
82379;BME280;72008;48.140;11.614;2023-12-29T01:24:47;95618.34;;;9.21;81.65
82379;BME280;72008;48.140;11.614;2023-12-29T01:25:48;95617.56;;;9.21;77.28
82379;BME280;72008;48.140;11.614;2023-12-29T01:26:48;95611.28;;;9.20;80.36
82379;BME280;72008;48.140;11.614;2023-12-29T01:27:49;95614.34;;;9.19;79.15
82379;BME280;72008;48.140;11.614;2023-12-29T01:28:49;95614.81;;;9.21;82.12
82379;BME280;72008;48.140;11.614;2023-12-29T01:29:49;95618.09;;;9.14;78.63
82379;BME280;72008;48.140;11.614;2023-12-29T01:30:50;95614.53;;;9.14;78.45
82379;BME280;72008;48.140;11.614;2023-12-29T01:31:50;95620.19;;;9.08;79.38
82379;BME280;72008;48.140;11.614;2023-12-29T01:32:51;95617.91;;;9.10;81.62
82379;BME280;72008;48.140;11.614;2023-12-29T01:33:51;95617.25;;;9.14;81.85
82379;BME280;72008;48.140;11.614;2023-12-29T01:34:52;95627.25;;;9.09;77.67
82379;BME280;72008;48.140;11.614;2023-12-29T01:35:52;95609.59;;;9.07;76.68
82379;BME280;72008;48.140;11.614;2023-12-29T01:36:53;95606.38;;;9.05;77.86
82379;BME280;72008;48.140;11.614;2023-12-29T01:37:53;95612.19;;;9.03;79.03
82379;BME280;72008;48.140;11.614;2023-12-29T01:38:54;95603.06;;;8.99;79.75
82379;BME280;72008;48.140;11.614;2023-12-29T01:39:54;95614.44;;;9.01;81.17
82379;BME280;72008;48.140;11.614;2023-12-29T01:40:54;95608.06;;;8.97;79.78
82379;BME280;72008;48.140;11.614;2023-12-29T01:41:56;95616.25;;;8.97;81.10
82379;BME280;72008;48.140;11.614;2023-12-29T01:42:56;95605.97;;;8.94;78.71
82379;BME280;72008;48.140;11.614;2023-12-29T01:44:57;95607.91;;;8.94;75.33
82379;BME280;72008;48.140;11.614;2023-12-29T01:45:57;95601.50;;;8.89;77.91
82379;BME280;72008;48.140;11.614;2023-12-29T01:47:04;95600.69;;;8.89;80.60
82379;BME280;72008;48.140;11.614;2023-12-29T01:48:05;95607.09;;;8.93;79.58
82379;BME280;72008;48.140;11.614;2023-12-29T01:49:06;95603.78;;;8.87;79.03
82379;BME280;72008;48.140;11.614;2023-12-29T01:50:07;95601.50;;;8.89;81.05
82379;BME280;72008;48.140;11.614;2023-12-29T01:51:07;95601.50;;;8.89;77.50
82379;BME280;72008;48.140;11.614;2023-12-29T01:52:08;95596.16;;;8.93;82.53
82379;BME280;72008;48.140;11.614;2023-12-29T01:53:08;95589.91;;;8.93;79.53
82379;BME280;72008;48.140;11.614;2023-12-29T01:54:11;95593.78;;;8.92;80.12
82379;BME280;72008;48.140;11.614;2023-12-29T01:55:17;95587.97;;;8.93;80.62
82379;BME280;72008;48.140;11.614;2023-12-29T01:56:18;95586.75;;;8.91;78.58
82379;BME280;72008;48.140;11.614;2023-12-29T01:57:19;95590.56;;;8.89;79.21
82379;BME280;72008;48.140;11.614;2023-12-29T01:58:20;95590.25;;;8.91;82.13
82379;BME280;72008;48.140;11.614;2023-12-29T01:59:21;95585.91;;;8.90;77.92
82379;BME280;72008;48.140;11.614;2023-12-29T02:00:21;95581.59;;;8.89;78.42
82379;BME280;72008;48.140;11.614;2023-12-29T02:01:23;95586.75;;;8.91;81.51
82379;BME280;72008;48.140;11.614;2023-12-29T02:02:23;95586.75;;;8.91;81.33
82379;BME280;72008;48.140;11.614;2023-12-29T02:03:24;95581.59;;;8.89;74.07
82379;BME280;72008;48.140;11.614;2023-12-29T02:04:25;95582.25;;;8.86;79.17
82379;BME280;72008;48.140;11.614;2023-12-29T02:05:26;95586.25;;;8.88;81.14
82379;BME280;72008;48.140;11.614;2023-12-29T02:06:31;95592.03;;;8.87;78.49
82379;BME280;72008;48.140;11.614;2023-12-29T02:07:32;95592.19;;;8.91;81.48
82379;BME280;72008;48.140;11.614;2023-12-29T02:08:33;95593.91;;;8.95;82.03
82379;BME280;72008;48.140;11.614;2023-12-29T02:09:34;95588.81;;;8.94;80.98
82379;BME280;72008;48.140;11.614;2023-12-29T02:10:35;95593.78;;;8.92;81.23
82379;BME280;72008;48.140;11.614;2023-12-29T02:11:36;95585.72;;;8.95;81.81
82379;BME280;72008;48.140;11.614;2023-12-29T02:12:38;95577.72;;;8.90;77.21
82379;BME280;72008;48.140;11.614;2023-12-29T02:13:38;95577.72;;;8.90;78.63
82379;BME280;72008;48.140;11.614;2023-12-29T02:14:38;95587.41;;;8.87;80.66
82379;BME280;72008;48.140;11.614;2023-12-29T02:15:40;95578.38;;;8.87;81.86
82379;BME280;72008;48.140;11.614;2023-12-29T02:16:53;95576.75;;;8.95;81.23
82379;BME280;72008;48.140;11.614;2023-12-29T02:18:01;95578.69;;;8.94;80.77
82379;BME280;72008;48.140;11.614;2023-12-29T02:19:44;95577.72;;;8.90;79.93
82379;BME280;72008;48.140;11.614;2023-12-29T02:20:38;95567.47;;;8.87;79.92
82379;BME280;72008;48.140;11.614;2023-12-29T02:21:38;95574.19;;;8.89;78.19
82379;BME280;72008;48.140;11.614;2023-12-29T02:22:39;95570.66;;;8.89;81.72
82379;BME280;72008;48.140;11.614;2023-12-29T02:23:39;95563.66;;;8.79;74.02
82379;BME280;72008;48.140;11.614;2023-12-29T02:24:47;95553.19;;;8.81;78.11
82379;BME280;72008;48.140;11.614;2023-12-29T02:25:47;95562.47;;;8.89;81.63
82379;BME280;72008;48.140;11.614;2023-12-29T02:26:57;95569.88;;;8.88;78.38
82379;BME280;72008;48.140;11.614;2023-12-29T02:28:20;95572.47;;;8.85;79.16
82379;BME280;72008;48.140;11.614;2023-12-29T02:29:26;95559.94;;;8.84;76.67
82379;BME280;72008;48.140;11.614;2023-12-29T02:31:35;95571.19;;;8.82;79.54
82379;BME280;72008;48.140;11.614;2023-12-29T02:32:42;95571.19;;;8.82;77.48
82379;BME280;72008;48.140;11.614;2023-12-29T02:33:45;95564.78;;;8.78;73.61
82379;BME280;72008;48.140;11.614;2023-12-29T02:34:50;95570.41;;;8.82;76.86
82379;BME280;72008;48.140;11.614;2023-12-29T02:35:55;95561.25;;;8.78;76.83
82379;BME280;72008;48.140;11.614;2023-12-29T02:36:58;95572.00;;;8.83;79.98
82379;BME280;72008;48.140;11.614;2023-12-29T02:37:59;95571.34;;;8.86;81.04
82379;BME280;72008;48.140;11.614;2023-12-29T02:39:00;95578.38;;;8.87;77.96
82379;BME280;72008;48.140;11.614;2023-12-29T02:40:01;95577.28;;;8.88;79.93
82379;BME280;72008;48.140;11.614;2023-12-29T02:41:02;95571.47;;;8.89;81.14
82379;BME280;72008;48.140;11.614;2023-12-29T02:42:02;95576.47;;;8.87;75.00
82379;BME280;72008;48.140;11.614;2023-12-29T02:43:03;95567.16;;;8.88;80.78
82379;BME280;72008;48.140;11.614;2023-12-29T02:44:04;95569.53;;;8.90;79.89
82379;BME280;72008;48.140;11.614;2023-12-29T02:45:05;95564.72;;;8.87;79.37
82379;BME280;72008;48.140;11.614;2023-12-29T02:46:05;95567.63;;;8.91;80.69
82379;BME280;72008;48.140;11.614;2023-12-29T02:47:06;95559.44;;;8.91;80.43
82379;BME280;72008;48.140;11.614;2023-12-29T02:48:06;95559.56;;;8.94;81.06
82379;BME280;72008;48.140;11.614;2023-12-29T02:49:07;95566.34;;;8.88;76.58
82379;BME280;72008;48.140;11.614;2023-12-29T02:50:07;95559.66;;;8.77;73.18
82379;BME280;72008;48.140;11.614;2023-12-29T02:51:08;95560.59;;;8.81;76.32
82379;BME280;72008;48.140;11.614;2023-12-29T02:52:08;95549.03;;;8.84;77.98
82379;BME280;72008;48.140;11.614;2023-12-29T02:53:09;95556.53;;;8.87;79.70
82379;BME280;72008;48.140;11.614;2023-12-29T02:54:09;95550.34;;;8.78;76.08
82379;BME280;72008;48.140;11.614;2023-12-29T02:55:10;95553.06;;;8.78;76.27
82379;BME280;72008;48.140;11.614;2023-12-29T02:56:10;95552.63;;;8.76;75.73
82379;BME280;72008;48.140;11.614;2023-12-29T02:57:10;95551.66;;;8.72;75.45
82379;BME280;72008;48.140;11.614;2023-12-29T02:58:11;95543.94;;;8.74;77.61
82379;BME280;72008;48.140;11.614;2023-12-29T02:59:11;95547.16;;;8.76;79.87
82379;BME280;72008;48.140;11.614;2023-12-29T03:00:12;95542.16;;;8.78;78.93
82379;BME280;72008;48.140;11.614;2023-12-29T03:01:12;95537.84;;;8.77;79.99
82379;BME280;72008;48.140;11.614;2023-12-29T03:02:13;95539.28;;;8.74;77.96
82379;BME280;72008;48.140;11.614;2023-12-29T03:03:13;95535.75;;;8.74;73.93
82379;BME280;72008;48.140;11.614;2023-12-29T03:04:14;95535.09;;;8.77;79.63
82379;BME280;72008;48.140;11.614;2023-12-29T03:05:14;95528.50;;;8.78;79.32
82379;BME280;72008;48.140;11.614;2023-12-29T03:06:14;95527.22;;;8.75;70.62
82379;BME280;72008;48.140;11.614;2023-12-29T03:07:15;95526.25;;;8.80;77.23
82379;BME280;72008;48.140;11.614;2023-12-29T03:08:15;95528.63;;;8.81;74.87
82379;BME280;72008;48.140;11.614;2023-12-29T03:09:16;95525.47;;;8.79;77.50
82379;BME280;72008;48.140;11.614;2023-12-29T03:10:16;95527.84;;;8.81;78.18
82379;BME280;72008;48.140;11.614;2023-12-29T03:11:16;95520.63;;;8.85;74.06
82379;BME280;72008;48.140;11.614;2023-12-29T03:12:17;95521.72;;;8.84;78.77
82379;BME280;72008;48.140;11.614;2023-12-29T03:13:17;95522.06;;;8.82;79.52
82379;BME280;72008;48.140;11.614;2023-12-29T03:14:18;95521.41;;;8.85;79.29
82379;BME280;72008;48.140;11.614;2023-12-29T03:15:18;95512.44;;;8.85;79.82
82379;BME280;72008;48.140;11.614;2023-12-29T03:16:18;95516.25;;;8.84;75.42
82379;BME280;72008;48.140;11.614;2023-12-29T03:17:19;95520.13;;;8.83;76.42
82379;BME280;72008;48.140;11.614;2023-12-29T03:18:19;95516.13;;;8.80;79.10
82379;BME280;72008;48.140;11.614;2023-12-29T03:19:20;95517.88;;;8.85;78.23
82379;BME280;72008;48.140;11.614;2023-12-29T03:20:20;95514.81;;;8.86;74.33
82379;BME280;72008;48.140;11.614;2023-12-29T03:21:20;95519.72;;;8.93;80.60
82379;BME280;72008;48.140;11.614;2023-12-29T03:22:21;95526.34;;;8.92;78.76
82379;BME280;72008;48.140;11.614;2023-12-29T03:23:21;95520.41;;;8.90;79.28
82379;BME280;72008;48.140;11.614;2023-12-29T03:24:22;95525.84;;;8.90;79.10
82379;BME280;72008;48.140;11.614;2023-12-29T03:25:22;95522.47;;;8.93;78.12
82379;BME280;72008;48.140;11.614;2023-12-29T03:26:22;95520.22;;;8.95;76.28
82379;BME280;72008;48.140;11.614;2023-12-29T03:27:23;95526.63;;;8.99;81.35
82379;BME280;72008;48.140;11.614;2023-12-29T03:28:23;95526.75;;;9.03;81.95
82379;BME280;72008;48.140;11.614;2023-12-29T03:29:24;95529.81;;;9.01;80.34
82379;BME280;72008;48.140;11.614;2023-12-29T03:30:24;95529.00;;;9.01;78.86
82379;BME280;72008;48.140;11.614;2023-12-29T03:31:24;95529.81;;;9.01;79.85
82379;BME280;72008;48.140;11.614;2023-12-29T03:32:25;95529.81;;;9.01;80.29
82379;BME280;72008;48.140;11.614;2023-12-29T03:33:25;95531.06;;;9.04;81.23
82379;BME280;72008;48.140;11.614;2023-12-29T03:34:26;95537.19;;;9.01;77.63
82379;BME280;72008;48.140;11.614;2023-12-29T03:35:26;95531.41;;;9.02;81.20
82379;BME280;72008;48.140;11.614;2023-12-29T03:36:26;95534.59;;;9.04;81.09
82379;BME280;72008;48.140;11.614;2023-12-29T03:37:27;95534.59;;;9.04;78.45
82379;BME280;72008;48.140;11.614;2023-12-29T03:38:27;95533.00;;;9.03;80.61
82379;BME280;72008;48.140;11.614;2023-12-29T03:39:28;95539.63;;;9.02;79.98
82379;BME280;72008;48.140;11.614;2023-12-29T03:40:28;95531.41;;;9.02;81.28
82379;BME280;72008;48.140;11.614;2023-12-29T03:41:28;95533.00;;;9.03;80.88
82379;BME280;72008;48.140;11.614;2023-12-29T03:42:29;95527.19;;;9.05;80.19
82379;BME280;72008;48.140;11.614;2023-12-29T03:43:29;95520.94;;;9.04;81.38
82379;BME280;72008;48.140;11.614;2023-12-29T03:44:30;95527.19;;;9.05;80.60
82379;BME280;72008;48.140;11.614;2023-12-29T03:45:30;95529.94;;;9.05;79.30
82379;BME280;72008;48.140;11.614;2023-12-29T03:46:30;95524.81;;;9.03;81.72
82379;BME280;72008;48.140;11.614;2023-12-29T03:47:31;95532.53;;;9.01;78.48
82379;BME280;72008;48.140;11.614;2023-12-29T03:48:31;95524.81;;;9.03;80.57
82379;BME280;72008;48.140;11.614;2023-12-29T03:49:32;95525.47;;;9.00;81.13
82379;BME280;72008;48.140;11.614;2023-12-29T03:50:32;95527.06;;;9.01;81.49
82379;BME280;72008;48.140;11.614;2023-12-29T03:51:32;95521.28;;;9.03;81.63
82379;BME280;72008;48.140;11.614;2023-12-29T03:52:33;95521.16;;;8.99;81.47
82379;BME280;72008;48.140;11.614;2023-12-29T03:53:33;95523.91;;;8.99;79.06
82379;BME280;72008;48.140;11.614;2023-12-29T03:54:34;95523.28;;;8.94;80.54
82379;BME280;72008;48.140;11.614;2023-12-29T03:55:34;95517.81;;;8.94;80.36
82379;BME280;72008;48.140;11.614;2023-12-29T03:56:34;95522.03;;;8.91;79.79
82379;BME280;72008;48.140;11.614;2023-12-29T03:57:35;95526.69;;;8.91;79.80
82379;BME280;72008;48.140;11.614;2023-12-29T03:58:35;95517.34;;;8.92;80.45
82379;BME280;72008;48.140;11.614;2023-12-29T03:59:36;95520.41;;;8.90;75.41
82379;BME280;72008;48.140;11.614;2023-12-29T04:00:37;95514.81;;;8.86;76.87
82379;BME280;72008;48.140;11.614;2023-12-29T04:01:37;95512.56;;;8.88;78.40
82379;BME280;72008;48.140;11.614;2023-12-29T04:02:38;95518.34;;;8.87;78.08
82379;BME280;72008;48.140;11.614;2023-12-29T04:03:39;95517.66;;;8.90;81.25
82379;BME280;72008;48.140;11.614;2023-12-29T04:04:39;95512.69;;;8.92;78.74
82379;BME280;72008;48.140;11.614;2023-12-29T04:05:40;95514.94;;;8.90;75.66
82379;BME280;72008;48.140;11.614;2023-12-29T04:06:40;95514.75;;;8.95;80.17
82379;BME280;72008;48.140;11.614;2023-12-29T04:07:41;95513.81;;;8.91;73.14
82379;BME280;72008;48.140;11.614;2023-12-29T04:08:41;95510.75;;;8.93;76.66
82379;BME280;72008;48.140;11.614;2023-12-29T04:09:42;95516.38;;;8.96;77.86
82379;BME280;72008;48.140;11.614;2023-12-29T04:10:42;95515.91;;;8.94;70.51
82379;BME280;72008;48.140;11.614;2023-12-29T04:11:43;95512.03;;;8.95;78.26
82379;BME280;72008;48.140;11.614;2023-12-29T04:12:43;95516.81;;;8.98;80.80
82379;BME280;72008;48.140;11.614;2023-12-29T04:13:44;95503.50;;;8.97;78.46
82379;BME280;72008;48.140;11.614;2023-12-29T04:14:44;95506.56;;;8.95;77.24
82379;BME280;72008;48.140;11.614;2023-12-29T04:15:44;95501.59;;;8.97;79.30
82379;BME280;72008;48.140;11.614;2023-12-29T04:16:45;95506.38;;;9.00;80.04
82379;BME280;72008;48.140;11.614;2023-12-29T04:17:45;95508.19;;;8.96;77.49
82379;BME280;72008;48.140;11.614;2023-12-29T04:18:46;95505.59;;;9.00;78.48
82379;BME280;72008;48.140;11.614;2023-12-29T04:19:46;95501.03;;;9.04;80.45
82379;BME280;72008;48.140;11.614;2023-12-29T04:20:47;95507.66;;;9.03;76.37
82379;BME280;72008;48.140;11.614;2023-12-29T04:21:47;95506.50;;;9.04;78.50
82379;BME280;72008;48.140;11.614;2023-12-29T04:22:47;95501.53;;;9.06;79.28
82379;BME280;72008;48.140;11.614;2023-12-29T04:23:48;95511.78;;;9.09;76.80
82379;BME280;72008;48.140;11.614;2023-12-29T04:24:48;95509.84;;;9.09;74.69
82379;BME280;72008;48.140;11.614;2023-12-29T04:25:49;95509.16;;;9.13;80.09
82379;BME280;72008;48.140;11.614;2023-12-29T04:26:49;95509.84;;;9.09;71.36
82379;BME280;72008;48.140;11.614;2023-12-29T04:27:49;95515.63;;;9.08;75.38
82379;BME280;72008;48.140;11.614;2023-12-29T04:28:50;95512.25;;;9.11;79.77
82379;BME280;72008;48.140;11.614;2023-12-29T04:29:50;95504.50;;;9.13;79.80
82379;BME280;72008;48.140;11.614;2023-12-29T04:30:50;95512.69;;;9.13;76.25
82379;BME280;72008;48.140;11.614;2023-12-29T04:31:51;95508.25;;;9.08;76.57
82379;BME280;72008;48.140;11.614;2023-12-29T04:32:51;95502.31;;;9.06;76.27
82379;BME280;72008;48.140;11.614;2023-12-29T04:33:52;95505.53;;;9.08;76.88
82379;BME280;72008;48.140;11.614;2023-12-29T04:34:52;95504.06;;;9.11;79.22
82379;BME280;72008;48.140;11.614;2023-12-29T04:35:52;95505.28;;;9.14;76.46
82379;BME280;72008;48.140;11.614;2023-12-29T04:36:54;95514.44;;;9.18;78.91
82379;BME280;72008;48.140;11.614;2023-12-29T04:37:55;95508.19;;;9.17;78.75
82379;BME280;72008;48.140;11.614;2023-12-29T04:38:55;95507.38;;;9.17;78.37
82379;BME280;72008;48.140;11.614;2023-12-29T04:39:56;95506.69;;;9.20;80.10
82379;BME280;72008;48.140;11.614;2023-12-29T04:40:56;95501.72;;;9.22;79.22
82379;BME280;72008;48.140;11.614;2023-12-29T04:41:56;95503.97;;;9.20;75.56
82379;BME280;72008;48.140;11.614;2023-12-29T04:42:57;95499.31;;;9.20;77.61
82379;BME280;72008;48.140;11.614;2023-12-29T04:43:57;95500.31;;;9.16;74.13
82379;BME280;72008;48.140;11.614;2023-12-29T04:44:58;95505.78;;;9.16;71.34
82379;BME280;72008;48.140;11.614;2023-12-29T04:45:58;95495.66;;;9.16;77.55
82379;BME280;72008;48.140;11.614;2023-12-29T04:46:58;95505.09;;;9.19;76.38
82379;BME280;72008;48.140;11.614;2023-12-29T04:47:59;95501.22;;;9.20;77.48
82379;BME280;72008;48.140;11.614;2023-12-29T04:48:59;95496.59;;;9.20;75.40
82379;BME280;72008;48.140;11.614;2023-12-29T04:50:00;95495.31;;;9.18;75.49
82379;BME280;72008;48.140;11.614;2023-12-29T04:51:00;95496.91;;;9.19;75.04
82379;BME280;72008;48.140;11.614;2023-12-29T04:52:01;95496.25;;;9.22;75.01
82379;BME280;72008;48.140;11.614;2023-12-29T04:53:01;95498.97;;;9.22;71.75
82379;BME280;72008;48.140;11.614;2023-12-29T04:54:01;95503.97;;;9.20;75.91
82379;BME280;72008;48.140;11.614;2023-12-29T04:55:02;95501.72;;;9.22;79.24
82379;BME280;72008;48.140;11.614;2023-12-29T04:56:03;95495.09;;;9.23;76.06
82379;BME280;72008;48.140;11.614;2023-12-29T04:57:03;95498.19;;;9.21;71.00
82379;BME280;72008;48.140;11.614;2023-12-29T04:58:04;95498.50;;;9.20;78.74
82379;BME280;72008;48.140;11.614;2023-12-29T04:59:04;95498.66;;;9.23;75.84
82379;BME280;72008;48.140;11.614;2023-12-29T05:00:05;95505.38;;;9.26;80.90
82379;BME280;72008;48.140;11.614;2023-12-29T05:01:05;95499.44;;;9.24;77.39
82379;BME280;72008;48.140;11.614;2023-12-29T05:02:06;95507.28;;;9.25;77.24
82379;BME280;72008;48.140;11.614;2023-12-29T05:03:06;95500.25;;;9.24;80.14
82379;BME280;72008;48.140;11.614;2023-12-29T05:04:10;95502.50;;;9.22;78.00
82379;BME280;72008;48.140;11.614;2023-12-29T05:05:10;95501.50;;;9.27;78.61
82379;BME280;72008;48.140;11.614;2023-12-29T05:06:10;95501.16;;;9.28;78.79
82379;BME280;72008;48.140;11.614;2023-12-29T05:07:11;95502.66;;;9.26;77.59
82379;BME280;72008;48.140;11.614;2023-12-29T05:08:12;95498.44;;;9.28;79.37
82379;BME280;72008;48.140;11.614;2023-12-29T05:09:12;95504.84;;;9.32;79.58
82379;BME280;72008;48.140;11.614;2023-12-29T05:10:12;95506.31;;;9.30;76.27
82379;BME280;72008;48.140;11.614;2023-12-29T05:11:13;95502.44;;;9.31;76.62
82379;BME280;72008;48.140;11.614;2023-12-29T05:12:14;95506.31;;;9.30;74.23
82379;BME280;72008;48.140;11.614;2023-12-29T05:13:15;95498.44;;;9.28;74.74
82379;BME280;72008;48.140;11.614;2023-12-29T05:14:15;95500.72;;;9.26;78.00
82379;BME280;72008;48.140;11.614;2023-12-29T05:15:16;95502.19;;;9.24;72.16
82379;BME280;72008;48.140;11.614;2023-12-29T05:16:16;95498.66;;;9.23;77.62
82379;BME280;72008;48.140;11.614;2023-12-29T05:17:17;95497.19;;;9.26;80.30
82379;BME280;72008;48.140;11.614;2023-12-29T05:18:17;95494.00;;;9.24;72.32
82379;BME280;72008;48.140;11.614;2023-12-29T05:19:17;95501.38;;;9.23;78.43
82379;BME280;72008;48.140;11.614;2023-12-29T05:20:18;95493.63;;;9.25;76.66
82379;BME280;72008;48.140;11.614;2023-12-29T05:21:19;95492.06;;;9.24;74.93
82379;BME280;72008;48.140;11.614;2023-12-29T05:22:19;95493.03;;;9.20;72.26
82379;BME280;72008;48.140;11.614;2023-12-29T05:23:19;95493.50;;;9.22;71.72
82379;BME280;72008;48.140;11.614;2023-12-29T05:24:20;95497.50;;;9.24;77.37
82379;BME280;72008;48.140;11.614;2023-12-29T05:25:20;95496.72;;;9.24;76.41